Terminal Aerodrome Forecast
Issued by NWS Cleveland, OH

Home | Current Version | Previous Version | Text Only | Print | Product List | Glossary On
Versions: 1 2 3 4 5 6 7 8 9 10 11 12 13 14 15
506
FTUS41 KCLE 172337
TAFYNG
TAF
KYNG 172337Z 1800/1824 24010G15KT P6SM OVC040
     FM180200 26008KT P6SM OVC025
     FM180400 26009KT P6SM OVC009
     FM180600 25010KT 6SM -SHRA OVC009
     FM181000 26009KT 4SM -SHRA BR OVC009
     FM181400 26010KT 4SM -DZ BR OVC003
     FM181700 26010KT 4SM BR OVC009=

USA.gov is the U.S. government's official web portal to all federal, state and local government web resources and services.